Time;durP1;ratioP1;P1;durP2;ratioP2;P2;SDS_P1;SDS_P2;PMS_P1;PMS_P2;Temp;Humidity;BMP_temperature;BMP_pressure;BME280_temperature;BME280_humidity;BME280_pressure;Samples;Min_cycle;Max_cycle;Signal;HPM_P1;HPM_P2
2022/12/15 00:38:43;;;;;;;3.95;2.78;;;;;;;;;;5088266;28;20543;-46
2022/12/15 00:41:09;;;;;;;3.28;2.97;;;;;;;;;;5087816;28;20036;-47
2022/12/15 00:43:35;;;;;;;3.80;2.55;;;;;;;;;;5088960;28;20024;-46
2022/12/15 00:48:47;;;;;;;4.63;3.13;;;;;;;;;;5087214;28;20074;-46
2022/12/15 00:51:13;;;;;;;2.78;2.38;;;;;;;;;;5090507;28;20020;-47
2022/12/15 01:21:07;;;;;;;3.25;2.47;;;;;;;;;;5084265;28;20434;-46
2022/12/15 01:23:33;;;;;;;3.30;2.70;;;;;;;;;;5078525;28;20020;-46
2022/12/15 01:25:59;;;;;;;4.68;2.90;;;;;;;;;;5084488;28;20157;-47
2022/12/15 01:28:25;;;;;;;3.30;3.00;;;;;;;;;;5080768;28;20032;-46
2022/12/15 01:30:51;;;;;;;4.00;2.97;;;;;;;;;;5083090;28;20078;-46
2022/12/15 01:33:18;;;;;;;4.20;3.35;;;;;;;;;;5080884;28;20389;-46
2022/12/15 01:35:44;;;;;;;3.90;3.40;;;;;;;;;;5084327;28;20025;-46
2022/12/15 01:38:10;;;;;;;3.17;2.60;;;;;;;;;;5083109;28;20461;-47
2022/12/15 01:40:46;;;;;;;3.88;2.92;;;;;;;;;;5081289;28;20028;-46
2022/12/15 01:43:12;;;;;;;4.22;3.03;;;;;;;;;;5076930;28;20028;-47
2022/12/15 01:45:46;;;;;;;3.70;2.65;;;;;;;;;;5079834;28;20629;-46
2022/12/15 01:48:13;;;;;;;3.75;3.00;;;;;;;;;;5079615;28;20104;-47
2022/12/15 01:50:41;;;;;;;3.25;2.42;;;;;;;;;;5082917;28;20194;-46
2022/12/15 01:53:08;;;;;;;3.53;2.90;;;;;;;;;;5080103;28;20433;-46
2022/12/15 01:55:34;;;;;;;4.30;3.10;;;;;;;;;;5071987;28;20044;-47
2022/12/15 01:58:02;;;;;;;3.80;2.83;;;;;;;;;;5074000;28;20118;-46
2022/12/15 02:00:29;;;;;;;3.80;3.00;;;;;;;;;;5072464;28;20048;-46
2022/12/15 02:02:56;;;;;;;3.33;2.88;;;;;;;;;;5068889;28;20050;-46
2022/12/15 02:05:23;;;;;;;3.80;2.92;;;;;;;;;;5071784;28;20027;-48
2022/12/15 02:07:49;;;;;;;3.78;2.72;;;;;;;;;;5072808;28;20699;-46
2022/12/15 02:10:15;;;;;;;3.85;2.70;;;;;;;;;;5073015;28;20040;-46
2022/12/15 02:12:46;;;;;;;3.78;2.80;;;;;;;;;;5069936;28;20028;-47
2022/12/15 02:15:21;;;;;;;4.40;3.28;;;;;;;;;;5063289;28;20401;-47
2022/12/15 02:17:59;;;;;;;3.13;2.60;;;;;;;;;;5072409;28;20032;-46
2022/12/15 02:20:31;;;;;;;4.80;3.67;;;;;;;;;;5072034;28;20024;-46
2022/12/15 02:22:57;;;;;;;4.00;2.97;;;;;;;;;;5070549;28;20026;-47
2022/12/15 02:25:29;;;;;;;3.25;2.80;;;;;;;;;;5070579;28;20021;-47
2022/12/15 02:27:58;;;;;;;4.43;3.45;;;;;;;;;;5070277;28;20143;-46
2022/12/15 02:31:48;;;;;;;4.40;3.20;;;;;;;;;;5072612;28;20021;-46
2022/12/15 02:33:39;;;;;;;3.47;2.95;;;;;;;;;;5054622;28;20063;-46
2022/12/15 02:36:27;;;;;;;4.00;2.88;;;;;;;;;;5071393;28;20454;-46
2022/12/15 02:38:53;;;;;;;4.88;3.38;;;;;;;;;;5072878;28;20021;-46
2022/12/15 02:41:32;;;;;;;4.35;2.40;;;;;;;;;;5071953;28;20684;-48
2022/12/15 02:43:59;;;;;;;3.72;3.30;;;;;;;;;;5068419;28;20059;-46
2022/12/15 02:46:30;;;;;;;4.20;3.42;;;;;;;;;;5069156;28;20020;-47
2022/12/15 02:49:11;;;;;;;4.28;3.17;;;;;;;;;;5071030;28;20388;-46
2022/12/15 02:51:47;;;;;;;4.47;3.47;;;;;;;;;;5070464;28;20078;-46
2022/12/15 02:54:27;;;;;;;4.30;3.05;;;;;;;;;;5069190;28;20044;-47
2022/12/15 02:57:02;;;;;;;4.53;3.08;;;;;;;;;;5080992;28;20078;-47
2022/12/15 02:59:36;;;;;;;4.15;3.00;;;;;;;;;;5081243;28;20430;-47
2022/12/15 03:02:07;;;;;;;4.05;2.70;;;;;;;;;;5081241;28;20465;-47
2022/12/15 03:04:33;;;;;;;4.25;3.03;;;;;;;;;;5069769;28;20136;-46
2022/12/15 03:07:03;;;;;;;4.32;3.10;;;;;;;;;;5072712;28;20029;-46
2022/12/15 03:09:30;;;;;;;3.33;2.80;;;;;;;;;;5072292;28;20031;-46
2022/12/15 03:11:56;;;;;;;4.20;2.97;;;;;;;;;;5072729;28;20150;-46
2022/12/15 03:14:24;;;;;;;4.78;3.72;;;;;;;;;;5071410;28;20385;-48
2022/12/15 03:16:50;;;;;;;4.40;3.38;;;;;;;;;;5072683;28;20025;-46
2022/12/15 03:19:16;;;;;;;5.28;3.80;;;;;;;;;;5072936;28;20029;-47
2022/12/15 03:21:42;;;;;;;5.63;3.50;;;;;;;;;;5069983;28;20040;-46
2022/12/15 03:24:08;;;;;;;3.83;3.25;;;;;;;;;;5069594;28;20048;-46
2022/12/15 03:26:34;;;;;;;4.38;3.10;;;;;;;;;;5064803;28;20479;-46
2022/12/15 03:29:00;;;;;;;4.38;3.53;;;;;;;;;;5073141;28;20021;-46
2022/12/15 03:31:26;;;;;;;3.85;3.30;;;;;;;;;;5071377;28;20025;-47
2022/12/15 03:33:52;;;;;;;4.07;3.00;;;;;;;;;;5072516;28;20032;-46
2022/12/15 03:36:18;;;;;;;4.60;3.00;;;;;;;;;;5069405;28;20024;-48
2022/12/15 03:38:44;;;;;;;4.25;3.40;;;;;;;;;;5065175;28;20104;-46
2022/12/15 03:41:10;;;;;;;4.38;3.10;;;;;;;;;;5052740;28;20044;-46
2022/12/15 03:43:35;;;;;;;4.25;3.40;;;;;;;;;;5051490;28;20033;-46
2022/12/15 03:46:01;;;;;;;4.28;3.17;;;;;;;;;;5067231;28;20034;-46
2022/12/15 03:48:27;;;;;;;5.93;3.47;;;;;;;;;;5070211;28;20032;-46
2022/12/15 03:50:54;;;;;;;4.55;3.30;;;;;;;;;;5072256;28;20108;-46
2022/12/15 03:53:20;;;;;;;5.80;3.95;;;;;;;;;;5065112;28;20090;-48
2022/12/15 03:55:46;;;;;;;4.05;3.50;;;;;;;;;;5069270;28;20494;-46
2022/12/15 03:58:12;;;;;;;3.53;2.95;;;;;;;;;;5071875;28;20024;-46
2022/12/15 04:00:38;;;;;;;4.15;3.13;;;;;;;;;;5071742;28;20887;-48
2022/12/15 04:03:04;;;;;;;4.55;3.53;;;;;;;;;;5071857;28;20060;-46
2022/12/15 04:05:32;;;;;;;4.15;3.17;;;;;;;;;;5070168;28;20036;-46
2022/12/15 04:07:59;;;;;;;4.60;3.28;;;;;;;;;;5071273;28;20020;-47
2022/12/15 04:10:25;;;;;;;3.63;3.10;;;;;;;;;;5079526;28;20028;-47
2022/12/15 04:13:20;;;;;;;4.75;3.28;;;;;;;;;;5057565;28;20370;-46
2022/12/15 04:15:46;;;;;;;5.65;3.70;;;;;;;;;;5046064;28;20059;-46
2022/12/15 04:18:12;;;;;;;4.28;3.05;;;;;;;;;;5075029;28;20493;-46
2022/12/15 04:20:39;;;;;;;4.68;3.38;;;;;;;;;;5071255;28;20032;-47
2022/12/15 04:23:08;;;;;;;5.65;3.53;;;;;;;;;;5071351;28;20028;-46
2022/12/15 05:31:51;;;;;;;8.82;3.78;;;;;;;;;;5069112;28;20158;-46
2022/12/15 05:34:18;;;;;;;9.70;4.18;;;;;;;;;;5070983;28;20390;-45
2022/12/15 05:36:44;;;;;;;13.93;4.75;;;;;;;;;;5068505;28;20056;-46
2022/12/15 05:39:10;;;;;;;9.07;3.67;;;;;;;;;;5061212;28;20068;-45
2022/12/15 05:41:36;;;;;;;13.02;3.88;;;;;;;;;;5048870;28;20041;-46
2022/12/15 05:44:02;;;;;;;7.60;4.20;;;;;;;;;;5060441;28;20037;-46
2022/12/15 05:46:28;;;;;;;11.23;5.03;;;;;;;;;;5074780;28;20517;-46
2022/12/15 05:48:54;;;;;;;15.50;5.22;;;;;;;;;;5073944;28;20112;-46
2022/12/15 05:51:20;;;;;;;13.70;5.40;;;;;;;;;;5069442;28;20074;-48
2022/12/15 05:53:46;;;;;;;11.65;5.75;;;;;;;;;;5077608;28;20123;-47
2022/12/15 05:56:13;;;;;;;9.25;4.50;;;;;;;;;;5091588;28;20504;-46
2022/12/15 05:58:39;;;;;;;10.10;5.10;;;;;;;;;;5099648;28;20023;-46
2022/12/15 06:01:13;;;;;;;12.25;5.15;;;;;;;;;;5094478;28;20024;-46
2022/12/15 06:03:39;;;;;;;11.05;5.53;;;;;;;;;;5092548;28;20034;-46
2022/12/15 06:06:06;;;;;;;11.38;4.55;;;;;;;;;;5093532;28;20020;-46
2022/12/15 06:08:33;;;;;;;9.93;4.93;;;;;;;;;;5075235;28;20462;-46
2022/12/15 06:10:59;;;;;;;11.55;4.82;;;;;;;;;;5094349;28;20373;-46
2022/12/15 06:13:26;;;;;;;10.18;4.50;;;;;;;;;;5093193;28;20039;-46
2022/12/15 06:15:59;;;;;;;8.02;4.28;;;;;;;;;;5094510;28;20032;-46
2022/12/15 06:18:27;;;;;;;9.40;4.28;;;;;;;;;;5093386;28;20024;-46
2022/12/15 06:20:57;;;;;;;8.70;4.20;;;;;;;;;;5094198;28;20020;-46
2022/12/15 06:23:23;;;;;;;6.78;3.83;;;;;;;;;;5092940;28;20500;-47
2022/12/15 06:25:49;;;;;;;9.60;4.32;;;;;;;;;;5094240;28;20046;-45
2022/12/15 06:28:15;;;;;;;10.25;5.10;;;;;;;;;;5093873;28;20091;-46
2022/12/15 06:30:41;;;;;;;10.52;4.57;;;;;;;;;;5093464;28;20099;-46
2022/12/15 06:33:07;;;;;;;9.02;4.15;;;;;;;;;;5093806;28;20059;-46
2022/12/15 06:35:37;;;;;;;10.25;4.97;;;;;;;;;;5093065;28;20055;-46
2022/12/15 06:38:03;;;;;;;12.52;4.70;;;;;;;;;;5093627;28;20019;-46
2022/12/15 06:40:29;;;;;;;7.07;4.45;;;;;;;;;;5093079;28;20024;-45
2022/12/15 06:42:55;;;;;;;9.95;5.55;;;;;;;;;;5093106;28;20493;-46
2022/12/15 06:45:21;;;;;;;6.85;5.13;;;;;;;;;;5093215;28;20039;-49
2022/12/15 06:47:48;;;;;;;8.40;5.07;;;;;;;;;;5092979;28;20028;-46
2022/12/15 06:50:14;;;;;;;7.50;4.28;;;;;;;;;;5091773;28;20039;-46
2022/12/15 06:52:40;;;;;;;8.98;4.45;;;;;;;;;;5082668;28;20043;-46
2022/12/15 06:55:06;;;;;;;7.07;4.10;;;;;;;;;;5088272;28;20044;-46
2022/12/15 06:57:32;;;;;;;6.90;4.30;;;;;;;;;;5091839;28;20024;-46
2022/12/15 06:59:58;;;;;;;6.90;4.10;;;;;;;;;;5099890;28;20024;-46
2022/12/15 07:02:24;;;;;;;7.82;4.53;;;;;;;;;;5085537;28;20038;-46
2022/12/15 07:04:50;;;;;;;6.30;3.85;;;;;;;;;;5093477;28;20118;-46
2022/12/15 07:07:16;;;;;;;15.70;4.75;;;;;;;;;;5093136;28;20017;-46
2022/12/15 07:09:42;;;;;;;5.85;3.65;;;;;;;;;;5090939;28;20032;-46
2022/12/15 07:12:09;;;;;;;8.45;3.70;;;;;;;;;;5087343;28;20028;-46
2022/12/15 07:14:35;;;;;;;5.50;3.78;;;;;;;;;;5092522;28;20024;-46
2022/12/15 07:17:01;;;;;;;8.27;3.83;;;;;;;;;;5092592;28;20031;-46
2022/12/15 07:19:28;;;;;;;4.88;3.72;;;;;;;;;;5092547;28;20024;-46
2022/12/15 07:21:56;;;;;;;7.78;3.90;;;;;;;;;;5092541;28;20381;-46
2022/12/15 07:24:22;;;;;;;5.55;4.00;;;;;;;;;;5092437;28;20382;-48
2022/12/15 07:26:48;;;;;;;14.88;4.35;;;;;;;;;;5091931;28;20489;-46
2022/12/15 07:29:15;;;;;;;7.95;4.38;;;;;;;;;;5093199;28;20031;-46
2022/12/15 07:31:41;;;;;;;5.43;4.05;;;;;;;;;;5091769;28;20039;-46
2022/12/15 07:34:07;;;;;;;7.78;3.92;;;;;;;;;;5092949;28;20020;-47
2022/12/15 07:36:33;;;;;;;4.53;3.42;;;;;;;;;;5091867;28;20077;-46
2022/12/15 07:39:00;;;;;;;5.55;3.83;;;;;;;;;;5093117;28;20027;-46
2022/12/15 07:41:26;;;;;;;8.98;4.15;;;;;;;;;;5091166;28;20035;-47
2022/12/15 07:43:52;;;;;;;8.82;3.53;;;;;;;;;;5092822;28;20103;-46
2022/12/15 07:46:18;;;;;;;5.30;3.55;;;;;;;;;;5092114;28;20155;-46
2022/12/15 07:48:45;;;;;;;5.25;3.35;;;;;;;;;;5091536;28;20469;-46
2022/12/15 07:51:11;;;;;;;4.38;3.28;;;;;;;;;;5092591;28;20035;-46
2022/12/15 07:53:37;;;;;;;7.70;4.18;;;;;;;;;;5090642;28;20385;-46
2022/12/15 07:56:04;;;;;;;4.75;3.42;;;;;;;;;;5092200;28;20066;-46
2022/12/15 07:58:30;;;;;;;6.30;3.85;;;;;;;;;;5092716;28;20031;-46
2022/12/15 08:01:03;;;;;;;6.78;4.65;;;;;;;;;;5092038;28;20024;-46
2022/12/15 08:03:29;;;;;;;6.82;3.80;;;;;;;;;;5090179;28;20039;-46
2022/12/15 08:05:56;;;;;;;5.63;3.72;;;;;;;;;;5092284;28;20028;-46
2022/12/15 08:08:22;;;;;;;4.82;3.42;;;;;;;;;;5090684;28;20027;-48
2022/12/15 08:10:48;;;;;;;4.15;3.53;;;;;;;;;;5092288;28;20040;-46
2022/12/15 08:13:14;;;;;;;5.03;3.83;;;;;;;;;;5091763;28;20047;-46
2022/12/15 08:15:40;;;;;;;4.20;3.45;;;;;;;;;;5091143;28;20108;-47
2022/12/15 08:18:08;;;;;;;5.53;3.38;;;;;;;;;;5091881;28;20491;-46
2022/12/15 08:20:34;;;;;;;5.28;3.70;;;;;;;;;;5091400;28;20032;-46
2022/12/15 08:23:00;;;;;;;4.38;3.53;;;;;;;;;;5091761;28;20350;-46
2022/12/15 08:25:29;;;;;;;4.95;3.67;;;;;;;;;;5082421;28;20077;-47
2022/12/15 08:27:55;;;;;;;6.35;3.53;;;;;;;;;;5091522;28;20362;-46
2022/12/15 08:30:21;;;;;;;5.25;3.40;;;;;;;;;;5091382;28;20028;-48
2022/12/15 08:32:47;;;;;;;3.78;3.38;;;;;;;;;;5091440;28;20118;-46
2022/12/15 08:35:13;;;;;;;5.32;4.03;;;;;;;;;;5092103;28;20477;-46
2022/12/15 08:37:40;;;;;;;5.85;3.30;;;;;;;;;;5090764;28;20020;-46
2022/12/15 08:40:06;;;;;;;4.63;3.80;;;;;;;;;;5091446;28;20387;-46
2022/12/15 08:42:33;;;;;;;5.95;3.40;;;;;;;;;;5090379;28;20035;-46
2022/12/15 08:44:59;;;;;;;5.35;3.80;;;;;;;;;;5086779;28;20031;-46
2022/12/15 08:47:25;;;;;;;6.85;4.07;;;;;;;;;;5082000;28;20024;-46
2022/12/15 08:49:53;;;;;;;5.50;4.07;;;;;;;;;;5092036;28;20019;-46
2022/12/15 08:52:19;;;;;;;5.07;3.40;;;;;;;;;;5098072;28;20107;-49
2022/12/15 08:54:45;;;;;;;4.82;3.20;;;;;;;;;;5092270;28;20076;-46
2022/12/15 08:57:11;;;;;;;4.47;3.00;;;;;;;;;;5095938;28;20414;-46
2022/12/15 08:59:37;;;;;;;5.35;3.40;;;;;;;;;;5092273;28;20024;-46
2022/12/15 09:02:03;;;;;;;5.00;3.40;;;;;;;;;;5091019;28;20042;-47
2022/12/15 09:04:29;;;;;;;5.72;4.10;;;;;;;;;;5091036;28;20374;-46
2022/12/15 09:06:55;;;;;;;5.43;3.30;;;;;;;;;;5091186;28;20026;-46
2022/12/15 09:09:21;;;;;;;6.43;3.85;;;;;;;;;;5090881;28;20032;-48
2022/12/15 09:11:47;;;;;;;4.85;3.75;;;;;;;;;;5080882;28;20501;-46
2022/12/15 09:14:13;;;;;;;5.85;4.07;;;;;;;;;;5091344;28;20022;-46
2022/12/15 09:16:39;;;;;;;6.20;3.83;;;;;;;;;;5090021;28;20020;-46
2022/12/15 09:19:07;;;;;;;5.15;3.42;;;;;;;;;;5091129;28;20128;-45
2022/12/15 09:21:33;;;;;;;4.93;3.28;;;;;;;;;;5089603;28;20031;-46
2022/12/15 09:24:00;;;;;;;5.05;3.28;;;;;;;;;;5095758;28;20028;-46
2022/12/15 09:26:27;;;;;;;4.57;3.50;;;;;;;;;;5093995;28;20020;-46
2022/12/15 09:28:56;;;;;;;6.93;4.53;;;;;;;;;;5095153;28;20472;-45
2022/12/15 09:31:23;;;;;;;5.68;3.38;;;;;;;;;;5094915;28;20032;-48
2022/12/15 09:33:50;;;;;;;5.40;3.53;;;;;;;;;;5094818;28;20377;-46
2022/12/15 09:36:16;;;;;;;5.72;3.80;;;;;;;;;;5094654;28;20481;-46
2022/12/15 09:38:42;;;;;;;4.82;3.28;;;;;;;;;;5093790;28;20043;-46
2022/12/15 09:41:16;;;;;;;5.07;3.70;;;;;;;;;;5095606;28;20032;-45
2022/12/15 09:43:59;;;;;;;4.80;4.00;;;;;;;;;;5093825;28;20020;-46
2022/12/15 09:46:44;;;;;;;5.72;3.85;;;;;;;;;;5093236;28;20114;-45
2022/12/15 09:49:18;;;;;;;5.35;3.88;;;;;;;;;;5081421;28;20381;-45
2022/12/15 09:51:46;;;;;;;4.93;3.90;;;;;;;;;;5093838;28;20028;-46
2022/12/15 09:54:12;;;;;;;4.72;3.53;;;;;;;;;;5094619;28;20127;-46
2022/12/15 09:56:48;;;;;;;4.78;3.38;;;;;;;;;;5093614;28;20039;-46
2022/12/15 09:59:28;;;;;;;5.43;3.78;;;;;;;;;;5080091;28;20035;-48
2022/12/15 10:02:09;;;;;;;6.75;3.92;;;;;;;;;;5094221;28;20035;-49
2022/12/15 10:04:36;;;;;;;6.00;3.45;;;;;;;;;;5093318;28;20512;-47
2022/12/15 10:07:12;;;;;;;4.68;3.58;;;;;;;;;;5103164;28;20028;-46
2022/12/15 10:09:38;;;;;;;5.72;4.20;;;;;;;;;;5098860;28;20035;-45
2022/12/15 10:12:14;;;;;;;4.90;3.72;;;;;;;;;;5095713;28;20067;-46
2022/12/15 10:14:59;;;;;;;4.72;3.05;;;;;;;;;;5090790;28;20031;-48
2022/12/15 10:17:29;;;;;;;5.25;3.85;;;;;;;;;;5084048;28;20056;-46
2022/12/15 10:19:57;;;;;;;5.15;4.00;;;;;;;;;;5096762;28;20036;-45
2022/12/15 10:22:25;;;;;;;6.07;3.65;;;;;;;;;;5101648;28;20082;-48
2022/12/15 10:24:51;;;;;;;6.78;5.55;;;;;;;;;;5097045;28;20034;-46
2022/12/15 10:27:29;;;;;;;4.55;3.00;;;;;;;;;;5095569;28;20028;-46
2022/12/15 10:30:00;;;;;;;6.10;3.53;;;;;;;;;;5094104;28;20072;-46
2022/12/15 10:32:45;;;;;;;4.82;3.30;;;;;;;;;;5093583;28;20016;-47
2022/12/15 10:35:15;;;;;;;6.22;3.55;;;;;;;;;;5090612;28;20370;-46
2022/12/15 10:37:41;;;;;;;7.45;3.80;;;;;;;;;;5084572;28;20031;-46
2022/12/15 10:40:07;;;;;;;6.80;3.83;;;;;;;;;;5090700;28;20143;-46
2022/12/15 10:42:44;;;;;;;5.05;3.35;;;;;;;;;;5093166;28;20389;-47
2022/12/15 10:45:28;;;;;;;7.95;3.80;;;;;;;;;;5096263;28;20099;-46
2022/12/15 10:47:58;;;;;;;7.68;4.05;;;;;;;;;;5084880;28;20496;-46
2022/12/15 10:50:26;;;;;;;11.05;4.05;;;;;;;;;;5097671;28;20036;-48
2022/12/15 10:52:52;;;;;;;5.68;4.22;;;;;;;;;;5090422;28;20016;-47
2022/12/15 10:55:36;;;;;;;5.68;3.33;;;;;;;;;;5098152;28;20044;-47
2022/12/15 10:58:03;;;;;;;6.80;3.88;;;;;;;;;;5090354;28;20078;-46
2022/12/15 11:00:30;;;;;;;4.97;3.35;;;;;;;;;;5094029;28;20082;-46
2022/12/15 11:02:57;;;;;;;7.25;3.50;;;;;;;;;;5089183;28;20126;-41
2022/12/15 11:05:23;;;;;;;6.00;4.50;;;;;;;;;;5098937;28;20427;-44
2022/12/15 11:07:53;;;;;;;5.10;3.53;;;;;;;;;;5080758;28;20030;-42
2022/12/15 11:10:23;;;;;;;5.35;3.70;;;;;;;;;;5094882;28;20070;-44
2022/12/15 11:13:09;;;;;;;4.97;3.83;;;;;;;;;;5090429;28;20115;-40
2022/12/15 11:15:39;;;;;;;6.20;3.92;;;;;;;;;;5092642;28;20103;-41
2022/12/15 11:18:10;;;;;;;7.18;3.97;;;;;;;;;;5086096;28;20027;-41
2022/12/15 11:20:45;;;;;;;6.13;4.32;;;;;;;;;;5097200;28;20034;-40
2022/12/15 11:23:24;;;;;;;7.18;4.47;;;;;;;;;;5077700;28;20036;-41
2022/12/15 11:25:53;;;;;;;7.70;4.25;;;;;;;;;;5095034;28;20031;-41
2022/12/15 11:28:21;;;;;;;5.22;3.88;;;;;;;;;;5089617;28;20016;-42
2022/12/15 11:30:56;;;;;;;8.45;4.22;;;;;;;;;;5095783;28;20114;-41
2022/12/15 11:33:22;;;;;;;8.60;4.45;;;;;;;;;;5088780;28;20521;-43
2022/12/15 11:36:00;;;;;;;6.88;4.97;;;;;;;;;;5094664;28;20363;-41
2022/12/15 11:38:26;;;;;;;6.30;4.05;;;;;;;;;;5090136;28;20054;-41
2022/12/15 11:40:54;;;;;;;7.38;4.45;;;;;;;;;;5073622;28;20056;-40
2022/12/15 11:43:22;;;;;;;7.57;4.18;;;;;;;;;;5081832;28;20028;-42
2022/12/15 11:46:07;;;;;;;6.75;4.63;;;;;;;;;;5099825;28;20364;-40
2022/12/15 11:48:52;;;;;;;5.07;3.83;;;;;;;;;;5084036;28;20020;-41
2022/12/15 11:51:36;;;;;;;5.57;3.95;;;;;;;;;;5083132;28;20024;-40
2022/12/15 11:54:09;;;;;;;5.22;4.10;;;;;;;;;;5083275;28;20039;-41
2022/12/15 11:56:38;;;;;;;6.53;3.95;;;;;;;;;;5106108;28;20083;-40
2022/12/15 11:59:22;;;;;;;5.97;4.05;;;;;;;;;;5082850;28;20120;-40
2022/12/15 12:01:51;;;;;;;6.57;4.18;;;;;;;;;;5101844;28;20027;-40
2022/12/15 12:04:23;;;;;;;5.18;3.78;;;;;;;;;;5087995;28;20038;-40
2022/12/15 12:06:49;;;;;;;6.55;4.65;;;;;;;;;;5098395;28;20028;-40
2022/12/15 12:09:18;;;;;;;6.50;4.07;;;;;;;;;;5088891;28;20050;-40
2022/12/15 12:11:49;;;;;;;7.22;3.97;;;;;;;;;;5097378;28;20028;-40
2022/12/15 12:14:22;;;;;;;7.57;4.43;;;;;;;;;;5084614;28;20232;-41
2022/12/15 12:16:56;;;;;;;5.15;3.58;;;;;;;;;;5092842;28;20526;-41
2022/12/15 12:19:23;;;;;;;6.85;4.57;;;;;;;;;;5087930;28;20040;-44
2022/12/15 12:21:49;;;;;;;5.82;3.78;;;;;;;;;;5095139;28;20035;-42
2022/12/15 12:24:28;;;;;;;5.90;4.20;;;;;;;;;;5086232;28;20432;-41
2022/12/15 12:26:58;;;;;;;4.47;3.85;;;;;;;;;;5089576;28;20500;-42
2022/12/15 12:29:34;;;;;;;5.85;4.40;;;;;;;;;;5089912;28;20033;-41
2022/12/15 12:32:03;;;;;;;6.38;3.92;;;;;;;;;;5091034;28;20442;-41
2022/12/15 12:34:48;;;;;;;4.72;4.10;;;;;;;;;;5084314;28;20682;-41
2022/12/15 12:37:20;;;;;;;5.43;3.53;;;;;;;;;;5087857;28;20028;-41
2022/12/15 12:39:47;;;;;;;6.18;3.97;;;;;;;;;;5083729;28;20108;-40
2022/12/15 12:42:28;;;;;;;8.35;4.53;;;;;;;;;;5099952;28;20044;-40
2022/12/15 12:44:54;;;;;;;4.65;3.33;;;;;;;;;;5087050;28;20082;-41
2022/12/15 12:47:25;;;;;;;4.60;3.60;;;;;;;;;;5092788;28;20048;-44
2022/12/15 12:49:53;;;;;;;4.38;3.60;;;;;;;;;;5092069;28;20485;-40
2022/12/15 12:52:24;;;;;;;5.85;4.35;;;;;;;;;;5098895;28;20031;-44
2022/12/15 12:54:58;;;;;;;4.45;3.30;;;;;;;;;;5089838;28;20422;-41
2022/12/15 12:57:27;;;;;;;5.03;3.90;;;;;;;;;;5099437;28;20032;-41
2022/12/15 13:00:08;;;;;;;4.78;3.60;;;;;;;;;;5099367;28;20433;-41
2022/12/15 13:02:35;;;;;;;5.88;3.58;;;;;;;;;;5097396;28;20024;-40
2022/12/15 13:05:03;;;;;;;5.03;3.78;;;;;;;;;;5101164;28;20036;-40
2022/12/15 13:07:29;;;;;;;3.92;3.05;;;;;;;;;;5092797;28;20462;-41
2022/12/15 13:10:08;;;;;;;5.53;3.90;;;;;;;;;;5099275;28;20153;-41
2022/12/15 13:12:43;;;;;;;5.93;3.90;;;;;;;;;;5094278;28;20497;-41
2022/12/15 13:15:33;;;;;;;5.40;4.07;;;;;;;;;;5086914;28;20395;-41
2022/12/15 13:18:15;;;;;;;4.30;3.38;;;;;;;;;;5086339;28;20054;-40
2022/12/15 13:20:42;;;;;;;5.18;3.50;;;;;;;;;;5095687;28;20119;-41
2022/12/15 13:23:21;;;;;;;6.45;3.83;;;;;;;;;;5089573;28;20131;-41
2022/12/15 13:25:52;;;;;;;5.10;3.92;;;;;;;;;;5099053;28;20044;-41
2022/12/15 13:28:46;;;;;;;4.80;4.22;;;;;;;;;;5090032;28;20017;-41
2022/12/15 13:31:20;;;;;;;5.70;3.58;;;;;;;;;;5096695;28;20040;-41
2022/12/15 13:33:49;;;;;;;5.60;3.65;;;;;;;;;;5092937;28;20739;-41
2022/12/15 13:36:33;;;;;;;4.68;3.28;;;;;;;;;;5082426;28;20047;-48
2022/12/15 13:38:59;;;;;;;5.03;3.65;;;;;;;;;;5093337;28;20019;-47
2022/12/15 13:41:25;;;;;;;6.15;3.90;;;;;;;;;;5092835;28;20040;-50
2022/12/15 13:43:53;;;;;;;5.15;4.00;;;;;;;;;;5081382;28;20035;-47
2022/12/15 13:46:32;;;;;;;5.45;3.75;;;;;;;;;;5101148;28;20160;-49
2022/12/15 13:49:01;;;;;;;5.18;4.38;;;;;;;;;;5085069;28;20024;-47
2022/12/15 13:51:27;;;;;;;4.90;3.53;;;;;;;;;;5092255;28;20039;-45
2022/12/15 13:54:03;;;;;;;5.82;3.92;;;;;;;;;;5094096;28;20044;-45
2022/12/15 13:56:31;;;;;;;5.75;3.70;;;;;;;;;;5093159;28;20031;-45
2022/12/15 13:59:04;;;;;;;5.88;3.28;;;;;;;;;;5102902;28;20028;-44
2022/12/15 14:01:30;;;;;;;5.35;3.67;;;;;;;;;;5093380;28;20024;-45
2022/12/15 14:04:03;;;;;;;5.13;3.75;;;;;;;;;;5082076;28;20036;-45
2022/12/15 14:06:33;;;;;;;3.88;3.15;;;;;;;;;;5085904;28;20062;-45
2022/12/15 14:08:59;;;;;;;5.43;3.85;;;;;;;;;;5094859;28;20035;-45
2022/12/15 14:11:27;;;;;;;5.88;3.92;;;;;;;;;;5093189;28;20043;-47
2022/12/15 14:13:53;;;;;;;5.43;3.75;;;;;;;;;;5094700;28;20071;-45
2022/12/15 14:16:21;;;;;;;5.40;3.97;;;;;;;;;;5086692;28;20141;-47
2022/12/15 14:19:02;;;;;;;4.28;3.53;;;;;;;;;;5088837;28;20020;-45
2022/12/15 14:21:29;;;;;;;4.38;3.00;;;;;;;;;;5093092;28;20028;-45
2022/12/15 14:23:56;;;;;;;3.90;3.28;;;;;;;;;;5094313;28;20024;-45
2022/12/15 14:26:26;;;;;;;5.25;3.60;;;;;;;;;;5093570;28;20046;-47
2022/12/15 14:28:59;;;;;;;4.97;3.30;;;;;;;;;;5094380;28;20027;-45
2022/12/15 14:31:25;;;;;;;4.82;3.95;;;;;;;;;;5093132;28;20024;-48
2022/12/15 14:34:10;;;;;;;3.88;3.15;;;;;;;;;;5094033;28;20030;-45
2022/12/15 14:36:36;;;;;;;4.35;3.17;;;;;;;;;;5092631;28;20024;-45
2022/12/15 14:39:05;;;;;;;4.15;3.47;;;;;;;;;;5093944;28;20469;-45
2022/12/15 14:41:35;;;;;;;4.13;3.30;;;;;;;;;;5092663;28;20035;-45
2022/12/15 14:44:04;;;;;;;4.57;3.05;;;;;;;;;;5093875;28;20075;-45
2022/12/15 14:46:30;;;;;;;4.47;3.30;;;;;;;;;;5085091;28;20427;-45
2022/12/15 14:48:58;;;;;;;5.05;3.35;;;;;;;;;;5094189;28;20077;-45
2022/12/15 14:51:26;;;;;;;4.97;3.67;;;;;;;;;;5092874;28;20024;-48
2022/12/15 14:53:53;;;;;;;4.88;3.70;;;;;;;;;;5093566;28;20046;-45
2022/12/15 14:56:19;;;;;;;4.65;3.28;;;;;;;;;;5093990;28;20031;-45
2022/12/15 14:58:46;;;;;;;4.68;3.47;;;;;;;;;;5100381;28;20024;-45
2022/12/15 15:01:21;;;;;;;3.97;3.00;;;;;;;;;;5093798;28;20036;-45
2022/12/15 15:03:55;;;;;;;5.03;3.35;;;;;;;;;;5073520;28;20082;-45
2022/12/15 15:06:24;;;;;;;5.18;3.60;;;;;;;;;;5102045;28;20031;-48
2022/12/15 15:08:52;;;;;;;4.03;3.15;;;;;;;;;;5091560;28;20165;-45
2022/12/15 15:11:29;;;;;;;12.88;7.60;;;;;;;;;;5088905;28;20377;-47
2022/12/15 15:13:56;;;;;;;8.07;5.88;;;;;;;;;;5087256;28;20572;-46
2022/12/15 15:16:22;;;;;;;8.80;4.95;;;;;;;;;;5087944;28;20020;-49
2022/12/15 15:18:49;;;;;;;6.90;5.18;;;;;;;;;;5087603;28;20047;-46
2022/12/15 15:21:21;;;;;;;6.72;5.07;;;;;;;;;;5103525;28;20027;-47
2022/12/15 15:24:22;;;;;;;6.90;5.07;;;;;;;;;;5085172;28;20046;-46
2022/12/15 15:26:48;;;;;;;6.47;4.20;;;;;;;;;;5013849;28;20022;-47
2022/12/15 15:29:37;;;;;;;8.55;4.90;;;;;;;;;;5065120;28;20043;-47
2022/12/15 15:32:16;;;;;;;5.85;4.35;;;;;;;;;;5101603;28;20032;-49
2022/12/15 15:34:43;;;;;;;6.05;4.40;;;;;;;;;;5081484;28;20028;-47
2022/12/15 15:37:17;;;;;;;6.45;4.65;;;;;;;;;;5098425;28;20016;-46
2022/12/15 15:39:43;;;;;;;5.35;4.07;;;;;;;;;;5091688;28;20108;-48
2022/12/15 15:42:12;;;;;;;6.05;4.55;;;;;;;;;;5099915;28;20036;-49
2022/12/15 15:44:39;;;;;;;6.80;4.10;;;;;;;;;;5086388;28;20028;-48
2022/12/15 15:47:06;;;;;;;6.03;4.53;;;;;;;;;;5096043;28;20024;-49
2022/12/15 15:49:32;;;;;;;7.05;4.30;;;;;;;;;;5089852;28;20054;-50
2022/12/15 15:51:58;;;;;;;7.32;4.45;;;;;;;;;;5091598;28;20028;-48
2022/12/15 15:54:27;;;;;;;6.72;4.47;;;;;;;;;;5084253;28;20131;-48
2022/12/15 15:56:53;;;;;;;6.43;4.00;;;;;;;;;;5095227;28;20043;-47
2022/12/15 15:59:20;;;;;;;5.53;3.92;;;;;;;;;;5090856;28;20477;-49
2022/12/15 16:01:49;;;;;;;6.35;4.53;;;;;;;;;;5092744;28;20057;-48
2022/12/15 16:04:15;;;;;;;5.28;4.13;;;;;;;;;;5090392;28;20036;-48
2022/12/15 16:06:41;;;;;;;7.53;5.10;;;;;;;;;;5096356;28;20070;-48
2022/12/15 16:09:07;;;;;;;7.35;4.03;;;;;;;;;;5089572;28;20380;-46
2022/12/15 16:11:34;;;;;;;7.18;4.13;;;;;;;;;;5089210;28;20092;-48
2022/12/15 16:14:00;;;;;;;6.03;4.10;;;;;;;;;;5090644;28;20033;-47
2022/12/15 16:16:35;;;;;;;6.47;4.25;;;;;;;;;;5106025;28;20028;-49
2022/12/15 16:19:02;;;;;;;7.10;4.97;;;;;;;;;;5100559;27;20071;-49
2022/12/15 16:21:28;;;;;;;7.85;6.40;;;;;;;;;;5105830;28;20491;-50
2022/12/15 16:23:54;;;;;;;8.15;5.00;;;;;;;;;;5099031;28;20390;-48
2022/12/15 16:26:25;;;;;;;7.18;5.03;;;;;;;;;;5107642;28;20369;-49
2022/12/15 16:28:51;;;;;;;10.55;5.53;;;;;;;;;;5103750;28;20039;-48
2022/12/15 16:31:27;;;;;;;8.55;5.28;;;;;;;;;;5107010;28;20027;-50
2022/12/15 16:33:54;;;;;;;8.43;5.43;;;;;;;;;;5097266;28;20059;-44
2022/12/15 16:36:20;;;;;;;5.93;4.43;;;;;;;;;;5107009;28;20094;-43
2022/12/15 16:38:46;;;;;;;6.57;5.20;;;;;;;;;;5099487;28;20042;-43
2022/12/15 16:41:14;;;;;;;8.00;4.88;;;;;;;;;;5106197;28;20027;-42
2022/12/15 16:43:40;;;;;;;6.97;5.07;;;;;;;;;;5101646;28;20035;-43
2022/12/15 16:46:06;;;;;;;7.25;5.13;;;;;;;;;;5106905;28;20533;-45
2022/12/15 16:48:32;;;;;;;10.23;5.35;;;;;;;;;;5095503;27;20064;-43
2022/12/15 16:50:58;;;;;;;6.70;4.72;;;;;;;;;;5105820;28;20031;-41
2022/12/15 16:53:25;;;;;;;6.30;4.35;;;;;;;;;;5102289;28;20032;-45
2022/12/15 16:55:56;;;;;;;6.70;4.60;;;;;;;;;;5105361;28;20052;-43
2022/12/15 16:58:22;;;;;;;5.57;4.40;;;;;;;;;;5100319;28;20055;-41
2022/12/15 17:00:49;;;;;;;7.82;4.38;;;;;;;;;;5106242;28;20032;-42
2022/12/15 17:03:15;;;;;;;7.30;4.55;;;;;;;;;;5098565;28;20027;-43
2022/12/15 17:05:42;;;;;;;6.13;4.80;;;;;;;;;;5107167;27;20020;-40
2022/12/15 17:08:28;;;;;;;5.63;4.25;;;;;;;;;;5103144;28;20072;-40
2022/12/15 17:10:55;;;;;;;6.78;4.18;;;;;;;;;;5100939;28;20032;-43